sensor_id;sensor_type;location;lat;lon;timestamp;P1;durP1;ratioP1;P2;durP2;ratioP2
59828;SDS011;45708;51.848;107.620;2023-05-21T00:04:56;12.90;;;7.60;;
59828;SDS011;45708;51.848;107.620;2023-05-21T00:09:57;11.60;;;7.03;;
59828;SDS011;45708;51.848;107.620;2023-05-21T00:14:58;10.75;;;6.38;;
59828;SDS011;45708;51.848;107.620;2023-05-21T00:19:59;8.07;;;6.25;;
59828;SDS011;45708;51.848;107.620;2023-05-21T00:25:00;9.07;;;6.93;;
59828;SDS011;45708;51.848;107.620;2023-05-21T00:30:02;10.52;;;6.03;;
59828;SDS011;45708;51.848;107.620;2023-05-21T00:35:03;9.73;;;6.85;;
59828;SDS011;45708;51.848;107.620;2023-05-21T00:40:06;10.77;;;6.85;;
59828;SDS011;45708;51.848;107.620;2023-05-21T00:45:08;11.13;;;6.60;;
59828;SDS011;45708;51.848;107.620;2023-05-21T00:50:09;10.13;;;7.25;;
59828;SDS011;45708;51.848;107.620;2023-05-21T00:55:11;9.82;;;6.90;;
59828;SDS011;45708;51.848;107.620;2023-05-21T01:00:12;10.75;;;7.18;;
59828;SDS011;45708;51.848;107.620;2023-05-21T01:05:14;9.68;;;6.20;;
59828;SDS011;45708;51.848;107.620;2023-05-21T01:10:15;12.05;;;7.20;;
59828;SDS011;45708;51.848;107.620;2023-05-21T01:15:16;10.95;;;6.60;;
59828;SDS011;45708;51.848;107.620;2023-05-21T01:20:18;10.10;;;6.47;;
59828;SDS011;45708;51.848;107.620;2023-05-21T01:25:19;9.82;;;6.38;;
59828;SDS011;45708;51.848;107.620;2023-05-21T01:30:21;9.15;;;6.43;;
59828;SDS011;45708;51.848;107.620;2023-05-21T01:35:34;6.35;;;4.97;;
59828;SDS011;45708;51.848;107.620;2023-05-21T01:41:01;10.60;;;5.32;;
59828;SDS011;45708;51.848;107.620;2023-05-21T01:46:03;6.38;;;4.80;;
59828;SDS011;45708;51.848;107.620;2023-05-21T01:51:07;9.20;;;6.50;;
59828;SDS011;45708;51.848;107.620;2023-05-21T01:56:08;9.25;;;6.50;;
59828;SDS011;45708;51.848;107.620;2023-05-21T02:01:09;11.88;;;5.53;;
59828;SDS011;45708;51.848;107.620;2023-05-21T02:06:10;8.73;;;6.20;;
59828;SDS011;45708;51.848;107.620;2023-05-21T02:11:11;6.40;;;4.65;;
59828;SDS011;45708;51.848;107.620;2023-05-21T02:16:12;7.07;;;5.50;;
59828;SDS011;45708;51.848;107.620;2023-05-21T02:21:12;9.77;;;5.90;;
59828;SDS011;45708;51.848;107.620;2023-05-21T02:26:13;9.13;;;5.80;;
59828;SDS011;45708;51.848;107.620;2023-05-21T02:31:14;11.73;;;5.78;;
59828;SDS011;45708;51.848;107.620;2023-05-21T02:36:15;6.65;;;4.40;;
59828;SDS011;45708;51.848;107.620;2023-05-21T02:41:16;8.25;;;4.72;;
59828;SDS011;45708;51.848;107.620;2023-05-21T02:46:16;10.45;;;6.07;;
59828;SDS011;45708;51.848;107.620;2023-05-21T02:51:17;6.07;;;5.07;;
59828;SDS011;45708;51.848;107.620;2023-05-21T02:56:18;6.72;;;4.82;;
59828;SDS011;45708;51.848;107.620;2023-05-21T03:01:19;8.50;;;5.30;;
59828;SDS011;45708;51.848;107.620;2023-05-21T03:06:20;6.43;;;4.28;;
59828;SDS011;45708;51.848;107.620;2023-05-21T03:11:20;6.28;;;4.45;;
59828;SDS011;45708;51.848;107.620;2023-05-21T03:16:21;8.90;;;5.82;;
59828;SDS011;45708;51.848;107.620;2023-05-21T03:21:22;8.45;;;4.82;;
59828;SDS011;45708;51.848;107.620;2023-05-21T03:26:26;8.25;;;4.70;;
59828;SDS011;45708;51.848;107.620;2023-05-21T03:31:26;7.38;;;5.15;;
59828;SDS011;45708;51.848;107.620;2023-05-21T03:36:27;7.32;;;5.05;;
59828;SDS011;45708;51.848;107.620;2023-05-21T03:41:29;7.03;;;4.25;;
59828;SDS011;45708;51.848;107.620;2023-05-21T03:46:30;7.85;;;5.50;;
59828;SDS011;45708;51.848;107.620;2023-05-21T03:51:31;11.32;;;7.60;;
59828;SDS011;45708;51.848;107.620;2023-05-21T03:56:31;8.07;;;4.13;;
59828;SDS011;45708;51.848;107.620;2023-05-21T04:01:32;7.05;;;4.47;;
59828;SDS011;45708;51.848;107.620;2023-05-21T04:06:33;7.80;;;5.65;;
59828;SDS011;45708;51.848;107.620;2023-05-21T04:11:34;8.18;;;5.05;;
59828;SDS011;45708;51.848;107.620;2023-05-21T04:16:35;6.47;;;4.63;;
59828;SDS011;45708;51.848;107.620;2023-05-21T04:21:35;6.63;;;4.90;;
59828;SDS011;45708;51.848;107.620;2023-05-21T04:26:36;9.35;;;3.97;;
59828;SDS011;45708;51.848;107.620;2023-05-21T04:31:37;5.32;;;4.25;;
59828;SDS011;45708;51.848;107.620;2023-05-21T04:36:38;5.00;;;3.80;;
59828;SDS011;45708;51.848;107.620;2023-05-21T04:41:39;6.93;;;4.25;;
59828;SDS011;45708;51.848;107.620;2023-05-21T04:46:40;4.03;;;3.53;;
59828;SDS011;45708;51.848;107.620;2023-05-21T04:51:41;5.78;;;3.90;;
59828;SDS011;45708;51.848;107.620;2023-05-21T04:56:41;5.10;;;3.58;;
59828;SDS011;45708;51.848;107.620;2023-05-21T05:01:42;4.45;;;3.08;;
59828;SDS011;45708;51.848;107.620;2023-05-21T05:06:43;3.78;;;3.05;;
59828;SDS011;45708;51.848;107.620;2023-05-21T05:11:44;3.47;;;3.17;;
59828;SDS011;45708;51.848;107.620;2023-05-21T05:16:45;3.97;;;3.58;;
59828;SDS011;45708;51.848;107.620;2023-05-21T05:21:45;3.90;;;2.95;;
59828;SDS011;45708;51.848;107.620;2023-05-21T05:26:46;4.55;;;3.42;;
59828;SDS011;45708;51.848;107.620;2023-05-21T05:31:47;3.22;;;2.92;;
59828;SDS011;45708;51.848;107.620;2023-05-21T05:36:48;6.72;;;3.08;;
59828;SDS011;45708;51.848;107.620;2023-05-21T05:41:49;4.80;;;3.22;;
59828;SDS011;45708;51.848;107.620;2023-05-21T05:46:50;3.40;;;2.70;;
59828;SDS011;45708;51.848;107.620;2023-05-21T05:51:50;7.05;;;3.92;;
59828;SDS011;45708;51.848;107.620;2023-05-21T05:56:51;4.15;;;3.00;;
59828;SDS011;45708;51.848;107.620;2023-05-21T06:01:52;3.67;;;2.88;;
59828;SDS011;45708;51.848;107.620;2023-05-21T06:06:53;3.92;;;3.42;;
59828;SDS011;45708;51.848;107.620;2023-05-21T06:11:55;3.15;;;2.70;;
59828;SDS011;45708;51.848;107.620;2023-05-21T06:16:55;4.00;;;2.75;;
59828;SDS011;45708;51.848;107.620;2023-05-21T06:21:56;3.50;;;2.70;;
59828;SDS011;45708;51.848;107.620;2023-05-21T06:26:57;4.07;;;2.90;;
59828;SDS011;45708;51.848;107.620;2023-05-21T06:31:58;6.60;;;4.28;;
59828;SDS011;45708;51.848;107.620;2023-05-21T06:36:59;5.60;;;3.20;;
59828;SDS011;45708;51.848;107.620;2023-05-21T06:41:59;4.32;;;3.63;;
59828;SDS011;45708;51.848;107.620;2023-05-21T06:47:00;4.18;;;3.08;;
59828;SDS011;45708;51.848;107.620;2023-05-21T06:52:01;6.82;;;3.40;;
59828;SDS011;45708;51.848;107.620;2023-05-21T06:57:02;3.70;;;2.92;;
59828;SDS011;45708;51.848;107.620;2023-05-21T07:02:03;4.30;;;3.88;;
59828;SDS011;45708;51.848;107.620;2023-05-21T07:07:03;3.45;;;2.72;;
59828;SDS011;45708;51.848;107.620;2023-05-21T07:12:04;6.72;;;5.55;;
59828;SDS011;45708;51.848;107.620;2023-05-21T07:17:06;4.65;;;3.35;;
59828;SDS011;45708;51.848;107.620;2023-05-21T07:22:06;4.53;;;3.75;;
59828;SDS011;45708;51.848;107.620;2023-05-21T07:27:07;3.80;;;2.50;;
59828;SDS011;45708;51.848;107.620;2023-05-21T07:32:08;3.80;;;3.08;;
59828;SDS011;45708;51.848;107.620;2023-05-21T07:37:09;5.53;;;2.95;;
59828;SDS011;45708;51.848;107.620;2023-05-21T07:42:09;4.25;;;3.05;;
59828;SDS011;45708;51.848;107.620;2023-05-21T07:47:10;3.20;;;2.90;;
59828;SDS011;45708;51.848;107.620;2023-05-21T07:52:11;3.50;;;2.67;;
59828;SDS011;45708;51.848;107.620;2023-05-21T07:57:12;12.25;;;3.97;;
59828;SDS011;45708;51.848;107.620;2023-05-21T08:02:13;3.88;;;3.47;;
59828;SDS011;45708;51.848;107.620;2023-05-21T08:07:13;3.33;;;2.72;;
59828;SDS011;45708;51.848;107.620;2023-05-21T08:12:14;3.10;;;2.80;;
59828;SDS011;45708;51.848;107.620;2023-05-21T08:17:15;3.80;;;3.25;;
59828;SDS011;45708;51.848;107.620;2023-05-21T08:22:19;4.22;;;2.92;;
59828;SDS011;45708;51.848;107.620;2023-05-21T08:27:19;4.13;;;3.40;;
59828;SDS011;45708;51.848;107.620;2023-05-21T08:32:20;5.60;;;3.17;;
59828;SDS011;45708;51.848;107.620;2023-05-21T08:37:21;3.58;;;2.83;;
59828;SDS011;45708;51.848;107.620;2023-05-21T08:47:33;3.97;;;3.17;;
59828;SDS011;45708;51.848;107.620;2023-05-21T08:52:35;3.40;;;2.80;;
59828;SDS011;45708;51.848;107.620;2023-05-21T08:57:36;3.88;;;3.00;;
59828;SDS011;45708;51.848;107.620;2023-05-21T09:02:40;4.40;;;3.00;;
59828;SDS011;45708;51.848;107.620;2023-05-21T09:07:58;6.53;;;3.75;;
59828;SDS011;45708;51.848;107.620;2023-05-21T09:13:13;4.03;;;3.15;;
59828;SDS011;45708;51.848;107.620;2023-05-21T09:18:15;4.20;;;3.15;;
59828;SDS011;45708;51.848;107.620;2023-05-21T09:23:17;5.13;;;3.22;;
59828;SDS011;45708;51.848;107.620;2023-05-21T09:28:18;5.80;;;3.85;;
59828;SDS011;45708;51.848;107.620;2023-05-21T09:33:23;2.95;;;2.63;;
59828;SDS011;45708;51.848;107.620;2023-05-21T09:43:29;5.72;;;3.80;;
59828;SDS011;45708;51.848;107.620;2023-05-21T09:58:53;5.05;;;3.88;;
59828;SDS011;45708;51.848;107.620;2023-05-21T10:03:57;4.88;;;2.80;;
59828;SDS011;45708;51.848;107.620;2023-05-21T10:09:00;6.22;;;4.20;;
59828;SDS011;45708;51.848;107.620;2023-05-21T10:14:12;6.10;;;4.30;;
59828;SDS011;45708;51.848;107.620;2023-05-21T10:19:15;7.13;;;4.70;;
59828;SDS011;45708;51.848;107.620;2023-05-21T10:24:17;9.02;;;5.65;;
59828;SDS011;45708;51.848;107.620;2023-05-21T10:29:18;6.47;;;4.00;;
59828;SDS011;45708;51.848;107.620;2023-05-21T10:34:20;5.00;;;3.90;;
59828;SDS011;45708;51.848;107.620;2023-05-21T10:39:22;4.10;;;3.42;;
59828;SDS011;45708;51.848;107.620;2023-05-21T10:50:05;8.48;;;4.30;;
59828;SDS011;45708;51.848;107.620;2023-05-21T11:00:35;8.52;;;6.22;;
59828;SDS011;45708;51.848;107.620;2023-05-21T11:05:40;9.73;;;5.63;;
59828;SDS011;45708;51.848;107.620;2023-05-21T11:10:51;6.78;;;5.20;;
59828;SDS011;45708;51.848;107.620;2023-05-21T11:26:05;5.87;;;3.77;;
59828;SDS011;45708;51.848;107.620;2023-05-21T11:31:25;7.90;;;4.68;;
59828;SDS011;45708;51.848;107.620;2023-05-21T11:36:26;9.00;;;4.93;;
59828;SDS011;45708;51.848;107.620;2023-05-21T11:41:27;7.65;;;4.97;;
59828;SDS011;45708;51.848;107.620;2023-05-21T11:46:28;11.20;;;7.80;;
59828;SDS011;45708;51.848;107.620;2023-05-21T11:51:30;7.30;;;4.90;;
59828;SDS011;45708;51.848;107.620;2023-05-21T11:56:31;15.48;;;7.18;;
59828;SDS011;45708;51.848;107.620;2023-05-21T12:01:32;14.57;;;8.35;;
59828;SDS011;45708;51.848;107.620;2023-05-21T12:06:33;11.02;;;8.35;;
59828;SDS011;45708;51.848;107.620;2023-05-21T12:11:33;14.98;;;9.00;;
59828;SDS011;45708;51.848;107.620;2023-05-21T12:16:35;16.92;;;10.05;;
59828;SDS011;45708;51.848;107.620;2023-05-21T12:21:36;25.17;;;14.35;;
59828;SDS011;45708;51.848;107.620;2023-05-21T12:26:37;19.80;;;12.75;;
59828;SDS011;45708;51.848;107.620;2023-05-21T12:32:20;42.67;;;23.20;;
59828;SDS011;45708;51.848;107.620;2023-05-21T12:37:03;57.15;;;28.98;;
59828;SDS011;45708;51.848;107.620;2023-05-21T12:42:05;36.97;;;20.85;;
59828;SDS011;45708;51.848;107.620;2023-05-21T12:47:06;25.45;;;15.30;;
59828;SDS011;45708;51.848;107.620;2023-05-21T12:52:08;20.42;;;9.25;;
59828;SDS011;45708;51.848;107.620;2023-05-21T12:57:17;13.35;;;7.72;;
59828;SDS011;45708;51.848;107.620;2023-05-21T13:02:28;12.38;;;6.72;;
59828;SDS011;45708;51.848;107.620;2023-05-21T13:07:33;8.75;;;5.57;;
59828;SDS011;45708;51.848;107.620;2023-05-21T13:12:39;17.30;;;7.87;;
59828;SDS011;45708;51.848;107.620;2023-05-21T13:17:40;14.20;;;8.02;;
59828;SDS011;45708;51.848;107.620;2023-05-21T13:22:41;8.57;;;6.00;;
59828;SDS011;45708;51.848;107.620;2023-05-21T13:27:43;7.65;;;4.63;;
59828;SDS011;45708;51.848;107.620;2023-05-21T13:32:44;5.63;;;3.95;;
59828;SDS011;45708;51.848;107.620;2023-05-21T13:42:56;7.05;;;3.15;;
59828;SDS011;45708;51.848;107.620;2023-05-21T13:47:57;5.55;;;3.00;;
59828;SDS011;45708;51.848;107.620;2023-05-21T13:52:57;21.50;;;11.95;;
59828;SDS011;45708;51.848;107.620;2023-05-21T13:57:58;21.80;;;11.35;;
59828;SDS011;45708;51.848;107.620;2023-05-21T14:03:01;22.40;;;13.63;;
59828;SDS011;45708;51.848;107.620;2023-05-21T14:08:02;30.23;;;14.23;;
59828;SDS011;45708;51.848;107.620;2023-05-21T14:13:03;23.85;;;10.98;;
59828;SDS011;45708;51.848;107.620;2023-05-21T14:18:04;19.23;;;11.40;;
59828;SDS011;45708;51.848;107.620;2023-05-21T14:23:05;23.63;;;12.32;;
59828;SDS011;45708;51.848;107.620;2023-05-21T14:28:06;28.40;;;14.15;;
59828;SDS011;45708;51.848;107.620;2023-05-21T14:33:06;27.70;;;14.75;;
59828;SDS011;45708;51.848;107.620;2023-05-21T14:38:07;34.88;;;17.75;;
59828;SDS011;45708;51.848;107.620;2023-05-21T14:43:08;36.97;;;20.13;;
59828;SDS011;45708;51.848;107.620;2023-05-21T14:48:09;41.40;;;20.20;;
59828;SDS011;45708;51.848;107.620;2023-05-21T14:53:10;42.60;;;24.35;;
59828;SDS011;45708;51.848;107.620;2023-05-21T14:58:11;44.75;;;24.40;;
59828;SDS011;45708;51.848;107.620;2023-05-21T15:03:12;46.90;;;22.67;;
59828;SDS011;45708;51.848;107.620;2023-05-21T15:08:13;36.70;;;18.77;;
59828;SDS011;45708;51.848;107.620;2023-05-21T15:13:14;40.28;;;20.58;;
59828;SDS011;45708;51.848;107.620;2023-05-21T15:18:15;32.60;;;18.08;;
59828;SDS011;45708;51.848;107.620;2023-05-21T15:23:16;26.02;;;14.82;;
59828;SDS011;45708;51.848;107.620;2023-05-21T15:28:17;23.23;;;13.50;;
59828;SDS011;45708;51.848;107.620;2023-05-21T15:33:18;24.73;;;13.20;;
59828;SDS011;45708;51.848;107.620;2023-05-21T15:38:18;23.25;;;12.48;;
59828;SDS011;45708;51.848;107.620;2023-05-21T15:43:19;19.33;;;12.98;;
59828;SDS011;45708;51.848;107.620;2023-05-21T15:48:20;27.77;;;13.02;;
59828;SDS011;45708;51.848;107.620;2023-05-21T15:53:21;24.63;;;13.27;;
59828;SDS011;45708;51.848;107.620;2023-05-21T15:58:22;25.35;;;13.02;;
59828;SDS011;45708;51.848;107.620;2023-05-21T16:03:22;19.30;;;12.23;;
59828;SDS011;45708;51.848;107.620;2023-05-21T16:08:23;23.95;;;13.57;;
59828;SDS011;45708;51.848;107.620;2023-05-21T16:13:24;24.13;;;13.40;;
59828;SDS011;45708;51.848;107.620;2023-05-21T16:18:25;24.25;;;13.32;;
59828;SDS011;45708;51.848;107.620;2023-05-21T16:23:26;24.60;;;12.77;;
59828;SDS011;45708;51.848;107.620;2023-05-21T16:28:27;19.80;;;11.90;;
59828;SDS011;45708;51.848;107.620;2023-05-21T16:33:28;26.92;;;12.48;;
59828;SDS011;45708;51.848;107.620;2023-05-21T16:38:29;31.90;;;12.55;;
59828;SDS011;45708;51.848;107.620;2023-05-21T16:43:30;25.52;;;11.57;;
59828;SDS011;45708;51.848;107.620;2023-05-21T16:48:31;28.20;;;12.20;;
59828;SDS011;45708;51.848;107.620;2023-05-21T16:53:32;29.55;;;12.95;;
59828;SDS011;45708;51.848;107.620;2023-05-21T16:58:33;26.73;;;12.05;;
59828;SDS011;45708;51.848;107.620;2023-05-21T17:03:34;24.77;;;12.02;;
59828;SDS011;45708;51.848;107.620;2023-05-21T17:08:35;32.53;;;13.60;;
59828;SDS011;45708;51.848;107.620;2023-05-21T17:13:36;31.75;;;15.20;;
59828;SDS011;45708;51.848;107.620;2023-05-21T17:18:37;28.02;;;16.65;;
59828;SDS011;45708;51.848;107.620;2023-05-21T17:23:37;29.38;;;14.60;;
59828;SDS011;45708;51.848;107.620;2023-05-21T17:28:38;25.23;;;13.27;;
59828;SDS011;45708;51.848;107.620;2023-05-21T17:33:39;31.35;;;13.40;;
59828;SDS011;45708;51.848;107.620;2023-05-21T17:38:40;26.33;;;12.80;;
59828;SDS011;45708;51.848;107.620;2023-05-21T17:43:41;24.63;;;12.50;;
59828;SDS011;45708;51.848;107.620;2023-05-21T17:48:44;24.02;;;11.20;;
59828;SDS011;45708;51.848;107.620;2023-05-21T17:53:45;16.42;;;10.00;;
59828;SDS011;45708;51.848;107.620;2023-05-21T17:58:46;18.35;;;9.93;;
59828;SDS011;45708;51.848;107.620;2023-05-21T18:03:47;20.77;;;9.43;;
59828;SDS011;45708;51.848;107.620;2023-05-21T18:08:47;15.20;;;9.75;;
59828;SDS011;45708;51.848;107.620;2023-05-21T18:13:48;16.92;;;8.68;;
59828;SDS011;45708;51.848;107.620;2023-05-21T18:18:49;18.52;;;8.90;;
59828;SDS011;45708;51.848;107.620;2023-05-21T18:23:50;15.32;;;8.43;;
59828;SDS011;45708;51.848;107.620;2023-05-21T18:28:51;13.63;;;8.27;;
59828;SDS011;45708;51.848;107.620;2023-05-21T18:33:52;13.95;;;7.35;;
59828;SDS011;45708;51.848;107.620;2023-05-21T18:38:52;16.17;;;8.32;;
59828;SDS011;45708;51.848;107.620;2023-05-21T18:43:53;14.98;;;8.98;;
59828;SDS011;45708;51.848;107.620;2023-05-21T18:48:55;15.55;;;8.55;;
59828;SDS011;45708;51.848;107.620;2023-05-21T18:53:58;15.70;;;7.80;;
59828;SDS011;45708;51.848;107.620;2023-05-21T18:58:59;16.13;;;9.20;;
59828;SDS011;45708;51.848;107.620;2023-05-21T19:03:59;16.08;;;8.27;;
59828;SDS011;45708;51.848;107.620;2023-05-21T19:09:00;13.52;;;7.50;;
59828;SDS011;45708;51.848;107.620;2023-05-21T19:14:01;20.10;;;8.57;;
59828;SDS011;45708;51.848;107.620;2023-05-21T19:19:02;17.05;;;8.15;;
59828;SDS011;45708;51.848;107.620;2023-05-21T19:24:03;18.17;;;8.60;;
59828;SDS011;45708;51.848;107.620;2023-05-21T19:29:04;16.63;;;8.43;;
59828;SDS011;45708;51.848;107.620;2023-05-21T19:34:05;14.25;;;8.23;;
59828;SDS011;45708;51.848;107.620;2023-05-21T19:39:05;12.70;;;7.85;;
59828;SDS011;45708;51.848;107.620;2023-05-21T19:44:06;14.32;;;8.52;;
59828;SDS011;45708;51.848;107.620;2023-05-21T19:49:07;19.67;;;9.05;;
59828;SDS011;45708;51.848;107.620;2023-05-21T19:54:08;21.40;;;9.85;;
59828;SDS011;45708;51.848;107.620;2023-05-21T19:59:09;18.17;;;8.88;;
59828;SDS011;45708;51.848;107.620;2023-05-21T20:04:10;19.95;;;10.05;;
59828;SDS011;45708;51.848;107.620;2023-05-21T20:09:11;20.00;;;8.65;;
59828;SDS011;45708;51.848;107.620;2023-05-21T20:14:12;24.48;;;8.85;;
59828;SDS011;45708;51.848;107.620;2023-05-21T20:19:13;20.00;;;9.73;;
59828;SDS011;45708;51.848;107.620;2023-05-21T20:24:14;16.27;;;9.20;;
59828;SDS011;45708;51.848;107.620;2023-05-21T20:29:15;17.45;;;8.73;;
59828;SDS011;45708;51.848;107.620;2023-05-21T20:34:16;13.40;;;7.28;;
59828;SDS011;45708;51.848;107.620;2023-05-21T20:39:16;16.92;;;7.78;;
59828;SDS011;45708;51.848;107.620;2023-05-21T20:44:17;13.07;;;7.93;;
59828;SDS011;45708;51.848;107.620;2023-05-21T20:49:18;11.23;;;7.15;;
59828;SDS011;45708;51.848;107.620;2023-05-21T20:54:19;10.95;;;6.60;;
59828;SDS011;45708;51.848;107.620;2023-05-21T20:59:20;9.80;;;5.50;;
59828;SDS011;45708;51.848;107.620;2023-05-21T21:04:20;13.65;;;6.45;;
59828;SDS011;45708;51.848;107.620;2023-05-21T21:09:21;8.98;;;4.93;;
59828;SDS011;45708;51.848;107.620;2023-05-21T21:14:22;8.73;;;5.03;;
59828;SDS011;45708;51.848;107.620;2023-05-21T21:19:23;8.27;;;4.53;;
59828;SDS011;45708;51.848;107.620;2023-05-21T21:24:24;9.13;;;5.07;;
59828;SDS011;45708;51.848;107.620;2023-05-21T21:29:24;9.07;;;4.45;;
59828;SDS011;45708;51.848;107.620;2023-05-21T21:34:25;11.57;;;4.78;;
59828;SDS011;45708;51.848;107.620;2023-05-21T21:39:26;9.43;;;6.32;;
59828;SDS011;45708;51.848;107.620;2023-05-21T21:44:27;15.77;;;7.20;;
59828;SDS011;45708;51.848;107.620;2023-05-21T21:49:27;19.65;;;9.45;;
59828;SDS011;45708;51.848;107.620;2023-05-21T21:54:28;18.73;;;10.02;;
59828;SDS011;45708;51.848;107.620;2023-05-21T21:59:29;18.77;;;9.98;;
59828;SDS011;45708;51.848;107.620;2023-05-21T22:04:30;18.60;;;9.70;;
59828;SDS011;45708;51.848;107.620;2023-05-21T22:09:30;22.02;;;8.13;;
59828;SDS011;45708;51.848;107.620;2023-05-21T22:14:32;18.23;;;10.00;;
59828;SDS011;45708;51.848;107.620;2023-05-21T22:19:33;21.88;;;10.73;;
59828;SDS011;45708;51.848;107.620;2023-05-21T22:24:33;19.90;;;9.60;;
59828;SDS011;45708;51.848;107.620;2023-05-21T22:29:34;20.88;;;9.88;;
59828;SDS011;45708;51.848;107.620;2023-05-21T22:34:35;22.77;;;12.65;;
59828;SDS011;45708;51.848;107.620;2023-05-21T22:39:36;20.90;;;11.98;;
59828;SDS011;45708;51.848;107.620;2023-05-21T22:44:37;19.25;;;11.05;;
59828;SDS011;45708;51.848;107.620;2023-05-21T22:49:38;23.08;;;12.23;;
59828;SDS011;45708;51.848;107.620;2023-05-21T22:54:39;15.18;;;9.45;;
59828;SDS011;45708;51.848;107.620;2023-05-21T22:59:40;17.67;;;8.60;;
59828;SDS011;45708;51.848;107.620;2023-05-21T23:04:40;18.33;;;8.77;;
59828;SDS011;45708;51.848;107.620;2023-05-21T23:09:41;17.13;;;10.63;;
59828;SDS011;45708;51.848;107.620;2023-05-21T23:14:42;28.25;;;13.43;;
59828;SDS011;45708;51.848;107.620;2023-05-21T23:19:43;23.85;;;13.27;;
59828;SDS011;45708;51.848;107.620;2023-05-21T23:24:44;20.95;;;11.25;;
59828;SDS011;45708;51.848;107.620;2023-05-21T23:29:45;13.55;;;9.25;;
59828;SDS011;45708;51.848;107.620;2023-05-21T23:34:46;13.80;;;8.48;;
59828;SDS011;45708;51.848;107.620;2023-05-21T23:39:46;14.68;;;8.13;;
59828;SDS011;45708;51.848;107.620;2023-05-21T23:44:47;17.23;;;9.40;;
59828;SDS011;45708;51.848;107.620;2023-05-21T23:49:48;11.55;;;7.53;;
59828;SDS011;45708;51.848;107.620;2023-05-21T23:54:49;12.15;;;6.57;;
59828;SDS011;45708;51.848;107.620;2023-05-21T23:59:49;14.93;;;7.43;;
